Tambon Pang Mu, Thailand

11:13 AM ICT on September 03, 2015 (GMT +0700)
Mae Hong Son | | Change Station
CLOSE
Current Station
Airport
Location: Mae Hong Son,
Elevation: 928 ft
Nearby Weather Stations

Elev 928 ft 19.30 °N, 97.97 °E | Updated 13 minutes ago

Scattered Clouds
Scattered Clouds
82 °F
Feels Like 87 °F
N
4
Wind Variable Wind from WNW

Today
High -- | Low -- °F
--% Chance of Precip.
Yesterday
High -- | Low -- °F
Precip. -- in
6:13 AM 6:41 PM
Waning Gibbous, 74% visible
Pressure 29.89 in
Visibility 6.2 miles
Clouds Few 1800 ft
Scattered Clouds 2500 ft
Heat Index 87 °F
Dew Point 72 °F
Humidity 70%
Rainfall 0.00 in
Snow Depth Not available.
UV 12 out of 12
Pollen Not available.
Air Quality Not available.
Flu Activity Not available.
METAR VTCH 030400Z 30003KT 210V350 9999 FEW018 SCT025 28/22 Q1012 A2990 INFO: E
Pressure 29.89 in
Visibility 6.2 miles
Clouds Few 1800 ft
Scattered Clouds 2500 ft
Heat Index 87 °F
Dew Point 72 °F
Humidity 70%
Rainfall 0.00 in
Snow Depth Not available.
UV 12 out of 12
Pollen Not available.
Air Quality Not available.
Flu Activity Not available.
METAR VTCH 030400Z 30003KT 210V350 9999 FEW018 SCT025 28/22 Q1012 A2990 INFO: E

10-Day Weather Forecast

×

Almanac

Astronomy

Sep. 03, 2015 Rise Set
Actual Time
Civil Twilight
Nautical Twilight
Astronomical Twilight
Moon
Length of Visible Light
Length of Day
Tomorrow will be .
, % of the Moon is Illuminated

Today's Extremes

Country Highs Country Lows

Community

WunderPhotos

Upload Photos

1,851,910 photos uploaded!

WunderBlogs® & News

Nearby

Air Quality

  Air Quality AQ Index Pollutant
Not available.

Snow Depth

Station Depth Elevation

Earthquake Activity

City Distance Mag. Time & Date
Minimum magnitude displayed is 2.5.

Coastal Water Temperatures

Place Temperature

Stations

Nearby Weather Stations

Station Location Temp. Windchill Dew Point Humidity Wind Precip. Elev Updated Type